createdAt,value
2023-02-16T00:01:56.082Z,2.60
2023-02-16T00:04:26.012Z,2.60
2023-02-16T00:06:54.228Z,2.50
2023-02-16T00:09:22.996Z,2.50
2023-02-16T00:12:09.423Z,2.50
2023-02-16T00:14:38.144Z,2.50
2023-02-16T00:17:05.979Z,2.90
2023-02-16T00:19:38.784Z,2.50
2023-02-16T00:22:07.013Z,2.50
2023-02-16T00:24:33.858Z,2.40
2023-02-16T00:27:01.391Z,2.40
2023-02-16T00:29:34.792Z,2.40
2023-02-16T00:32:03.879Z,2.30
2023-02-16T00:34:36.988Z,2.30
2023-02-16T00:37:06.577Z,2.30
2023-02-16T00:39:34.473Z,2.20
2023-02-16T00:42:07.407Z,2.10
2023-02-16T00:44:36.027Z,2.10
2023-02-16T00:47:21.770Z,2.00
2023-02-16T00:49:51.160Z,2.00
2023-02-16T00:52:33.219Z,1.90
2023-02-16T00:55:02.262Z,1.90
2023-02-16T00:57:32.733Z,1.80
2023-02-16T01:00:37.828Z,1.80
2023-02-16T01:03:11.768Z,3.70
2023-02-16T01:05:38.517Z,1.70
2023-02-16T01:08:29.864Z,1.70
2023-02-16T01:11:00.523Z,1.60
2023-02-16T01:13:29.208Z,1.60
2023-02-16T01:15:56.916Z,1.60
2023-02-16T01:18:23.786Z,1.60
2023-02-16T01:20:50.679Z,1.60
2023-02-16T01:23:18.454Z,1.60
2023-02-16T01:25:45.277Z,1.50
2023-02-16T01:28:20.588Z,1.50
2023-02-16T01:30:47.852Z,1.50
2023-02-16T01:33:14.681Z,1.40
2023-02-16T01:35:42.006Z,1.40
2023-02-16T01:38:19.987Z,1.40
2023-02-16T01:41:06.422Z,1.30
2023-02-16T01:43:48.114Z,1.30
2023-02-16T01:46:21.191Z,1.30
2023-02-16T01:48:48.022Z,1.30
2023-02-16T01:51:27.357Z,1.20
2023-02-16T01:54:13.695Z,1.20
2023-02-16T01:56:47.612Z,1.20
2023-02-16T01:59:28.446Z,1.20
2023-02-16T02:01:59.878Z,1.30
2023-02-16T02:04:52.885Z,1.20
2023-02-16T02:07:28.353Z,1.20
2023-02-16T02:10:30.946Z,1.20
2023-02-16T02:13:07.229Z,1.10
2023-02-16T02:15:34.596Z,1.10
2023-02-16T02:18:01.975Z,1.00
2023-02-16T02:21:21.638Z,1.00
2023-02-16T02:24:07.080Z,1.00
2023-02-16T02:26:50.256Z,0.90
2023-02-16T02:29:26.239Z,0.90
2023-02-16T02:32:23.434Z,0.90
2023-02-16T02:35:47.907Z,1.00
2023-02-16T02:38:40.263Z,1.00
2023-02-16T02:41:49.088Z,1.00
2023-02-16T02:44:20.194Z,1.00
2023-02-16T02:46:47.811Z,1.00
2023-02-16T02:49:15.138Z,1.10
2023-02-16T02:51:41.877Z,1.10
2023-02-16T02:54:55.797Z,1.20
2023-02-16T02:57:56.679Z,1.20
2023-02-16T03:00:41.338Z,1.20
2023-02-16T03:03:32.212Z,1.30
2023-02-16T03:06:10.727Z,1.30
2023-02-16T03:08:41.389Z,1.20
2023-02-16T03:11:50.002Z,1.20
2023-02-16T03:14:26.611Z,1.20
2023-02-16T03:17:21.093Z,1.20
2023-02-16T03:20:09.762Z,1.10
2023-02-16T03:22:57.574Z,1.10
2023-02-16T03:25:50.687Z,1.10
2023-02-16T03:28:38.129Z,1.10
2023-02-16T03:31:07.402Z,1.00
2023-02-16T03:33:35.991Z,1.00
2023-02-16T03:36:04.366Z,0.90
2023-02-16T03:38:32.218Z,0.80
2023-02-16T03:40:59.049Z,0.80
2023-02-16T03:43:27.531Z,0.70
2023-02-16T03:45:54.762Z,0.60
2023-02-16T03:48:21.742Z,0.60
2023-02-16T03:50:48.888Z,0.70
2023-02-16T03:53:18.169Z,0.60
2023-02-16T03:55:47.822Z,0.60
2023-02-16T03:58:18.488Z,0.70
2023-02-16T04:00:45.692Z,0.70
2023-02-16T04:03:13.746Z,0.70
2023-02-16T04:05:40.694Z,0.70
2023-02-16T04:08:08.606Z,0.70
2023-02-16T04:10:36.186Z,0.70
2023-02-16T04:13:03.282Z,0.70
2023-02-16T04:15:31.420Z,0.70
2023-02-16T04:17:58.655Z,0.60
2023-02-16T04:20:28.683Z,0.60
2023-02-16T04:22:55.880Z,0.60
2023-02-16T04:25:22.977Z,0.60
2023-02-16T04:27:51.135Z,0.50
2023-02-16T04:30:21.133Z,0.60
2023-02-16T04:32:48.409Z,0.60
2023-02-16T04:35:16.016Z,0.60
2023-02-16T04:37:42.959Z,0.60
2023-02-16T04:40:13.625Z,0.60
2023-02-16T04:42:44.879Z,0.70
2023-02-16T04:45:12.242Z,0.70
2023-02-16T04:47:39.015Z,0.70
2023-02-16T04:50:06.642Z,0.70
2023-02-16T04:52:34.377Z,0.70
2023-02-16T04:55:02.329Z,1.20
2023-02-16T04:57:29.368Z,0.70
2023-02-16T05:00:00.358Z,0.70
2023-02-16T05:02:27.119Z,0.80
2023-02-16T05:04:53.826Z,0.70
2023-02-16T05:07:20.811Z,0.80
2023-02-16T05:09:47.633Z,2.50
2023-02-16T05:12:32.914Z,0.80
2023-02-16T05:14:59.742Z,0.80
2023-02-16T05:17:27.650Z,0.80
2023-02-16T05:19:57.408Z,0.70
2023-02-16T05:22:24.246Z,0.70
2023-02-16T05:24:51.567Z,0.70
2023-02-16T05:27:22.373Z,0.70
2023-02-16T05:29:49.632Z,0.70
2023-02-16T05:32:17.512Z,0.70
2023-02-16T05:34:45.637Z,0.70
2023-02-16T05:37:14.616Z,0.70
2023-02-16T05:39:41.783Z,0.70
2023-02-16T05:42:08.874Z,0.70
2023-02-16T05:44:37.170Z,0.80
2023-02-16T05:47:04.778Z,0.70
2023-02-16T05:49:31.622Z,0.70
2023-02-16T05:51:58.445Z,0.70
2023-02-16T05:54:25.497Z,0.70
2023-02-16T05:56:52.848Z,0.70
2023-02-16T05:59:19.995Z,0.70
2023-02-16T06:01:50.699Z,0.60
2023-02-16T06:04:19.747Z,0.60
2023-02-16T06:06:46.595Z,0.50
2023-02-16T06:09:13.441Z,0.50
2023-02-16T06:11:40.495Z,0.40
2023-02-16T06:14:13.911Z,0.40
2023-02-16T06:16:42.765Z,0.40
2023-02-16T06:19:09.628Z,0.30
2023-02-16T06:21:38.995Z,0.30
2023-02-16T06:24:06.897Z,0.20
2023-02-16T06:26:33.925Z,0.10
2023-02-16T06:29:00.861Z,0.10
2023-02-16T06:31:28.069Z,0.00
2023-02-16T06:33:56.974Z,0.00
2023-02-16T06:36:24.651Z,0.00
2023-02-16T06:38:52.780Z,0.00
2023-02-16T06:41:31.987Z,0.00
2023-02-16T06:44:00.901Z,0.00
2023-02-16T06:46:28.630Z,0.00
2023-02-16T06:48:55.714Z,0.10
2023-02-16T06:51:22.667Z,0.10
2023-02-16T06:53:49.783Z,0.20
2023-02-16T06:56:16.913Z,0.20
2023-02-16T06:58:43.940Z,0.30
2023-02-16T07:01:11.023Z,0.30
2023-02-16T07:03:38.392Z,0.40
2023-02-16T07:06:05.654Z,0.40
2023-02-16T07:08:33.823Z,0.40
2023-02-16T07:11:01.274Z,1.20
2023-02-16T07:13:28.127Z,0.50
2023-02-16T07:15:55.006Z,0.50
2023-02-16T07:18:21.837Z,0.50
2023-02-16T07:20:49.039Z,0.50
2023-02-16T07:23:15.891Z,0.70
2023-02-16T07:25:42.731Z,0.90
2023-02-16T07:28:09.574Z,1.10
2023-02-16T07:30:36.829Z,1.40
2023-02-16T07:33:04.011Z,1.90
2023-02-16T07:35:30.917Z,2.20
2023-02-16T07:37:57.771Z,2.60
2023-02-16T07:40:24.836Z,3.20
2023-02-16T07:42:51.658Z,3.80
2023-02-16T07:45:18.665Z,4.50
2023-02-16T07:47:45.443Z,5.10
2023-02-16T07:50:12.216Z,5.60
2023-02-16T07:52:39.519Z,6.10
2023-02-16T07:55:06.901Z,6.40
2023-02-16T07:57:33.745Z,6.80
2023-02-16T08:00:01.743Z,7.10
2023-02-16T08:02:28.810Z,7.50
2023-02-16T08:04:55.730Z,7.90
2023-02-16T08:07:22.714Z,8.40
2023-02-16T08:09:49.786Z,8.80
2023-02-16T08:12:17.701Z,9.20
2023-02-16T08:14:46.661Z,9.50
2023-02-16T08:17:13.910Z,9.80
2023-02-16T08:19:41.085Z,10.50
2023-02-16T08:22:09.162Z,10.90
2023-02-16T08:24:37.684Z,11.10
2023-02-16T08:27:05.522Z,11.60
2023-02-16T08:29:33.211Z,12.00
2023-02-16T08:32:01.398Z,12.40
2023-02-16T08:34:29.906Z,12.90
2023-02-16T08:36:57.569Z,15.00
2023-02-16T08:39:27.793Z,13.50
2023-02-16T08:41:55.514Z,13.80
2023-02-16T08:44:25.945Z,13.80
2023-02-16T08:46:56.693Z,13.90
2023-02-16T08:49:28.377Z,13.90
2023-02-16T08:51:59.721Z,13.20
2023-02-16T08:54:30.624Z,12.40
2023-02-16T08:56:59.820Z,11.70
2023-02-16T08:59:28.829Z,11.20
2023-02-16T09:01:58.209Z,10.60
2023-02-16T09:04:25.982Z,9.60
2023-02-16T09:06:53.483Z,9.40
2023-02-16T09:09:20.821Z,9.10
2023-02-16T09:11:48.408Z,9.00
2023-02-16T09:14:18.552Z,8.80
2023-02-16T09:16:46.005Z,8.50
2023-02-16T09:19:19.121Z,8.30
2023-02-16T09:21:47.075Z,8.20
2023-02-16T09:24:14.051Z,8.20
2023-02-16T09:26:42.976Z,8.10
2023-02-16T09:29:12.485Z,8.10
2023-02-16T09:31:44.458Z,8.00
2023-02-16T09:34:20.313Z,8.40
2023-02-16T09:36:47.950Z,8.00
2023-02-16T09:39:17.041Z,8.00
2023-02-16T09:42:01.391Z,8.00
2023-02-16T09:44:39.327Z,8.10
2023-02-16T09:47:15.410Z,8.20
2023-02-16T09:49:46.367Z,8.10
2023-02-16T09:52:36.698Z,8.20
2023-02-16T09:55:14.616Z,8.90
2023-02-16T09:57:41.913Z,8.20
2023-02-16T10:00:33.025Z,8.00
2023-02-16T10:03:18.630Z,8.30
2023-02-16T10:05:56.577Z,10.70
2023-02-16T10:08:31.618Z,8.30
2023-02-16T10:11:33.025Z,8.40
2023-02-16T10:14:08.166Z,8.40
2023-02-16T10:16:44.135Z,8.40
2023-02-16T10:19:43.496Z,8.40
2023-02-16T10:22:21.407Z,8.60
2023-02-16T10:25:02.407Z,8.70
2023-02-16T10:27:38.474Z,8.70
2023-02-16T10:30:32.677Z,8.70
2023-02-16T10:33:12.869Z,8.90
2023-02-16T10:35:47.559Z,8.90
2023-02-16T10:38:38.707Z,9.70
2023-02-16T10:41:16.870Z,9.00
2023-02-16T10:44:11.193Z,9.00
2023-02-16T10:46:45.773Z,9.20
2023-02-16T10:49:15.908Z,9.30
2023-02-16T10:51:49.105Z,9.40
2023-02-16T10:54:35.180Z,9.40
2023-02-16T10:57:13.029Z,10.50
2023-02-16T10:59:44.720Z,9.50
2023-02-16T11:02:25.034Z,9.70
2023-02-16T11:04:57.977Z,9.80
2023-02-16T11:07:27.385Z,9.90
2023-02-16T11:09:57.324Z,9.90
2023-02-16T11:12:27.320Z,10.00
2023-02-16T11:15:19.767Z,10.10
2023-02-16T11:17:58.714Z,10.20
2023-02-16T11:20:32.849Z,10.30
2023-02-16T11:23:28.565Z,10.30
2023-02-16T11:26:24.088Z,10.40
2023-02-16T11:28:51.901Z,10.50
2023-02-16T11:31:18.763Z,10.50
2023-02-16T11:34:06.248Z,10.50
2023-02-16T11:36:39.257Z,10.80
2023-02-16T11:39:26.144Z,10.80
2023-02-16T11:42:00.134Z,10.90
2023-02-16T11:44:41.692Z,10.90
2023-02-16T11:47:28.294Z,11.00
2023-02-16T11:50:19.306Z,11.00
2023-02-16T11:52:57.407Z,11.10
2023-02-16T11:55:33.318Z,11.20
2023-02-16T11:58:19.744Z,11.20
2023-02-16T12:01:08.614Z,11.30
2023-02-16T12:04:22.388Z,11.30
2023-02-16T12:07:08.873Z,11.40
2023-02-16T12:10:14.772Z,11.50
2023-02-16T12:13:19.383Z,11.60
2023-02-16T12:16:17.279Z,11.70
2023-02-16T12:19:11.208Z,11.80
2023-02-16T12:21:38.861Z,11.90
2023-02-16T12:24:24.433Z,12.50
2023-02-16T12:27:16.790Z,12.10
2023-02-16T12:30:18.280Z,12.20
2023-02-16T12:33:19.517Z,12.30
2023-02-16T12:36:05.475Z,12.30
2023-02-16T12:39:03.313Z,12.30
2023-02-16T12:41:59.382Z,12.30
2023-02-16T12:44:52.395Z,12.30
2023-02-16T12:47:49.333Z,12.30
2023-02-16T12:50:24.282Z,12.30
2023-02-16T12:52:51.044Z,12.30
2023-02-16T12:55:49.026Z,12.30
2023-02-16T12:58:27.360Z,12.30
2023-02-16T13:00:58.572Z,12.30
2023-02-16T13:03:52.325Z,12.40
2023-02-16T13:06:48.368Z,12.30
2023-02-16T13:09:49.974Z,12.30
2023-02-16T13:12:49.725Z,12.30
2023-02-16T13:15:21.220Z,12.30
2023-02-16T13:17:58.522Z,12.30
2023-02-16T13:20:25.544Z,12.30
2023-02-16T13:23:34.311Z,12.30
2023-02-16T13:26:12.453Z,12.40
2023-02-16T13:29:10.897Z,12.40
2023-02-16T13:31:54.509Z,12.40
2023-02-16T13:34:47.382Z,12.40
2023-02-16T13:37:24.016Z,12.50
2023-02-16T13:40:19.375Z,12.50
2023-02-16T13:43:06.376Z,12.50
2023-02-16T13:45:39.163Z,12.50
2023-02-16T13:48:24.426Z,12.50
2023-02-16T13:51:04.148Z,12.50
2023-02-16T13:53:38.622Z,12.50
2023-02-16T13:56:31.864Z,12.50
2023-02-16T13:59:17.378Z,12.50
2023-02-16T14:01:46.538Z,12.30
2023-02-16T14:04:33.346Z,12.20
2023-02-16T14:07:03.334Z,13.60
2023-02-16T14:09:47.701Z,12.10
2023-02-16T14:12:27.943Z,12.60
2023-02-16T14:14:56.888Z,12.00
2023-02-16T14:17:33.565Z,11.90
2023-02-16T14:20:11.803Z,11.90
2023-02-16T14:22:59.766Z,11.90
2023-02-16T14:25:27.530Z,11.90
2023-02-16T14:28:02.709Z,11.80
2023-02-16T14:30:49.969Z,11.80
2023-02-16T14:33:22.751Z,11.80
2023-02-16T14:35:58.867Z,11.80
2023-02-16T14:38:33.308Z,11.80
2023-02-16T14:41:27.456Z,11.70
2023-02-16T14:44:26.545Z,11.80
2023-02-16T14:47:11.609Z,11.70
2023-02-16T14:49:51.046Z,11.70
2023-02-16T14:52:37.237Z,11.60
2023-02-16T14:55:31.562Z,11.60
2023-02-16T14:58:51.856Z,11.60
2023-02-16T15:01:19.593Z,11.60
2023-02-16T15:03:50.366Z,11.50
2023-02-16T15:06:24.155Z,11.50
2023-02-16T15:08:58.234Z,11.60
2023-02-16T15:11:32.738Z,11.50
2023-02-16T15:14:11.188Z,11.50
2023-02-16T15:16:40.704Z,11.50
2023-02-16T15:19:12.567Z,11.50
2023-02-16T15:21:39.842Z,11.50
2023-02-16T15:24:20.419Z,11.50
2023-02-16T15:26:54.829Z,11.50
2023-02-16T15:29:26.921Z,11.50
2023-02-16T15:31:55.068Z,11.80
2023-02-16T15:34:34.964Z,11.50
2023-02-16T15:37:19.623Z,11.50
2023-02-16T15:40:00.982Z,11.50
2023-02-16T15:42:35.575Z,11.50
2023-02-16T15:45:26.491Z,11.50
2023-02-16T15:47:53.669Z,11.50
2023-02-16T15:50:26.932Z,11.50
2023-02-16T15:52:54.153Z,12.50
2023-02-16T15:55:21.294Z,11.40
2023-02-16T15:57:48.233Z,11.50
2023-02-16T16:00:21.856Z,11.40
2023-02-16T16:02:51.438Z,11.50
2023-02-16T16:05:23.787Z,11.40
2023-02-16T16:07:51.022Z,11.40
2023-02-16T16:10:26.321Z,11.40
2023-02-16T16:12:58.010Z,11.40
2023-02-16T16:15:27.024Z,11.40
2023-02-16T16:17:54.953Z,11.30
2023-02-16T16:20:48.283Z,11.30
2023-02-16T16:23:14.989Z,11.40
2023-02-16T16:25:45.406Z,11.20
2023-02-16T16:28:33.962Z,11.20
2023-02-16T16:31:12.383Z,11.50
2023-02-16T16:34:30.373Z,11.10
2023-02-16T16:36:58.880Z,11.00
2023-02-16T16:39:31.419Z,10.90
2023-02-16T16:42:01.286Z,10.90
2023-02-16T16:44:36.703Z,11.70
2023-02-16T16:47:26.712Z,10.60
2023-02-16T16:50:27.575Z,10.60
2023-02-16T16:52:55.103Z,10.60
2023-02-16T16:55:26.159Z,10.40
2023-02-16T16:58:00.469Z,10.40
2023-02-16T17:00:34.580Z,10.40
2023-02-16T17:03:03.709Z,10.40
2023-02-16T17:05:30.981Z,10.30
2023-02-16T17:07:57.865Z,10.30
2023-02-16T17:10:25.201Z,10.20
2023-02-16T17:12:56.083Z,10.20
2023-02-16T17:15:30.967Z,10.20
2023-02-16T17:17:58.158Z,10.20
2023-02-16T17:20:25.460Z,10.20
2023-02-16T17:22:52.478Z,10.10
2023-02-16T17:25:19.518Z,10.00
2023-02-16T17:27:46.511Z,10.00
2023-02-16T17:30:13.835Z,10.00
2023-02-16T17:32:40.630Z,10.00
2023-02-16T17:35:07.915Z,9.90
2023-02-16T17:37:35.621Z,9.90
2023-02-16T17:40:04.365Z,9.80
2023-02-16T17:42:31.720Z,9.70
2023-02-16T17:44:58.597Z,9.70
2023-02-16T17:47:25.365Z,9.60
2023-02-16T17:49:52.356Z,9.50
2023-02-16T17:52:19.151Z,9.50
2023-02-16T17:54:45.900Z,9.50
2023-02-16T17:57:13.334Z,9.50
2023-02-16T17:59:41.342Z,9.50
2023-02-16T18:02:11.004Z,9.50
2023-02-16T18:04:41.011Z,9.50
2023-02-16T18:07:15.043Z,9.40
2023-02-16T18:09:41.984Z,9.40
2023-02-16T18:12:09.148Z,9.30
2023-02-16T18:14:38.938Z,9.30
2023-02-16T18:17:06.884Z,9.30
2023-02-16T18:19:34.366Z,9.20
2023-02-16T18:22:01.627Z,9.20
2023-02-16T18:24:28.378Z,8.90
2023-02-16T18:26:55.513Z,9.10
2023-02-16T18:29:22.574Z,9.10
2023-02-16T18:31:49.429Z,9.10
2023-02-16T18:34:16.452Z,9.10
2023-02-16T18:36:43.536Z,9.00
2023-02-16T18:39:10.535Z,9.00
2023-02-16T18:41:37.593Z,8.90
2023-02-16T18:44:04.721Z,8.90
2023-02-16T18:46:31.544Z,8.80
2023-02-16T18:48:58.442Z,8.70
2023-02-16T18:51:28.893Z,8.60
2023-02-16T18:53:57.089Z,8.70
2023-02-16T18:56:24.289Z,9.60
2023-02-16T18:58:51.140Z,8.60
2023-02-16T19:01:28.980Z,8.50
2023-02-16T19:03:55.927Z,8.60
2023-02-16T19:06:23.081Z,8.50
2023-02-16T19:08:51.524Z,9.70
2023-02-16T19:11:22.296Z,8.50
2023-02-16T19:13:49.654Z,8.50
2023-02-16T19:16:17.474Z,8.50
2023-02-16T19:18:44.316Z,8.40
2023-02-16T19:21:13.415Z,8.40
2023-02-16T19:23:40.820Z,7.00
2023-02-16T19:26:13.336Z,8.50
2023-02-16T19:28:41.045Z,8.40
2023-02-16T19:31:14.806Z,8.40
2023-02-16T19:33:41.825Z,8.40
2023-02-16T19:36:10.741Z,8.40
2023-02-16T19:38:37.709Z,8.40
2023-02-16T19:41:13.648Z,8.30
2023-02-16T19:43:41.779Z,8.40
2023-02-16T19:46:09.681Z,8.30
2023-02-16T19:48:36.975Z,8.30
2023-02-16T19:51:05.521Z,8.30
2023-02-16T19:53:34.048Z,8.30
2023-02-16T19:56:23.704Z,8.20
2023-02-16T19:58:51.112Z,8.30
2023-02-16T20:01:20.690Z,8.30
2023-02-16T20:03:48.946Z,8.30
2023-02-16T20:06:20.782Z,8.30
2023-02-16T20:08:48.956Z,8.50
2023-02-16T20:11:17.561Z,8.50
2023-02-16T20:13:44.733Z,8.50
2023-02-16T20:16:12.817Z,8.50
2023-02-16T20:18:41.827Z,8.60
2023-02-16T20:21:13.183Z,8.50
2023-02-16T20:23:44.860Z,8.60
2023-02-16T20:26:18.917Z,8.60
2023-02-16T20:28:46.448Z,8.60
2023-02-16T20:31:29.835Z,8.60
2023-02-16T20:33:57.387Z,8.60
2023-02-16T20:36:24.319Z,8.50
2023-02-16T20:38:51.187Z,8.50
2023-02-16T20:41:19.771Z,8.50
2023-02-16T20:43:46.864Z,8.50
2023-02-16T20:46:14.657Z,8.40
2023-02-16T20:48:41.869Z,8.40
2023-02-16T20:51:10.104Z,8.40
2023-02-16T20:53:37.144Z,8.40
2023-02-16T20:56:07.363Z,8.40
2023-02-16T20:58:36.101Z,8.50
2023-02-16T21:01:04.185Z,8.50
2023-02-16T21:03:32.163Z,8.50
2023-02-16T21:05:59.112Z,8.40
2023-02-16T21:08:25.807Z,8.40
2023-02-16T21:10:52.575Z,8.40
2023-02-16T21:13:19.326Z,8.40
2023-02-16T21:15:46.341Z,8.40
2023-02-16T21:18:13.160Z,8.40
2023-02-16T21:20:40.023Z,8.40
2023-02-16T21:23:07.143Z,8.30
2023-02-16T21:25:34.279Z,8.30
2023-02-16T21:28:01.173Z,8.30
2023-02-16T21:30:28.213Z,8.30
2023-02-16T21:32:54.985Z,8.20
2023-02-16T21:35:21.918Z,8.20
2023-02-16T21:37:48.811Z,8.10
2023-02-16T21:40:34.540Z,8.20
2023-02-16T21:43:01.361Z,8.20
2023-02-16T21:45:28.401Z,8.10
2023-02-16T21:48:13.798Z,8.10
2023-02-16T21:50:41.837Z,8.10
2023-02-16T21:53:09.541Z,8.00
2023-02-16T21:55:56.562Z,8.00
2023-02-16T21:58:26.946Z,8.00
2023-02-16T22:00:54.677Z,8.00
2023-02-16T22:03:21.908Z,8.00
2023-02-16T22:05:48.715Z,8.10
2023-02-16T22:08:15.615Z,8.10
2023-02-16T22:10:42.339Z,8.10
2023-02-16T22:13:09.230Z,8.10
2023-02-16T22:15:37.133Z,8.00
2023-02-16T22:18:05.408Z,8.00
2023-02-16T22:20:32.426Z,8.10
2023-02-16T22:22:59.158Z,8.00
2023-02-16T22:25:26.003Z,8.00
2023-02-16T22:27:52.901Z,8.00
2023-02-16T22:30:19.729Z,8.10
2023-02-16T22:32:46.666Z,8.10
2023-02-16T22:35:13.482Z,8.10
2023-02-16T22:37:40.297Z,8.00
2023-02-16T22:40:07.440Z,8.10
2023-02-16T22:42:36.153Z,8.10
2023-02-16T22:45:03.904Z,8.00
2023-02-16T22:47:31.339Z,8.00
2023-02-16T22:49:58.186Z,8.00
2023-02-16T22:52:25.113Z,8.00
2023-02-16T22:54:52.035Z,8.00
2023-02-16T22:57:19.148Z,7.90
2023-02-16T22:59:46.138Z,7.90
2023-02-16T23:02:12.989Z,7.80
2023-02-16T23:04:41.229Z,6.30
2023-02-16T23:07:10.008Z,7.70
2023-02-16T23:09:36.774Z,7.70
2023-02-16T23:12:04.159Z,7.60
2023-02-16T23:14:30.983Z,9.20
2023-02-16T23:16:57.890Z,7.60
2023-02-16T23:19:26.634Z,7.50
2023-02-16T23:21:54.244Z,7.50
2023-02-16T23:24:22.902Z,7.50
2023-02-16T23:26:50.198Z,7.50
2023-02-16T23:29:17.611Z,7.40
2023-02-16T23:31:46.953Z,7.40
2023-02-16T23:34:14.618Z,7.40
2023-02-16T23:36:41.765Z,7.30
2023-02-16T23:39:14.651Z,7.40
2023-02-16T23:41:42.461Z,7.50
2023-02-16T23:44:11.837Z,7.50
2023-02-16T23:46:38.695Z,7.60
2023-02-16T23:49:05.643Z,7.60
2023-02-16T23:51:32.533Z,7.70
2023-02-16T23:53:59.296Z,7.70
2023-02-16T23:56:28.114Z,7.80
2023-02-16T23:59:00.136Z,7.80
